sensor_id;sensor_type;location;lat;lon;timestamp;pressure;altitude;pressure_sealevel;temperature;humidity
15998;BME280;8103;51.340;12.326;2022-10-23T00:01:45;100442.84;;;13.79;nan
15998;BME280;8103;51.340;12.326;2022-10-23T00:04:20;100440.72;;;13.81;nan
15998;BME280;8103;51.340;12.326;2022-10-23T00:06:48;100435.06;;;13.82;nan
15998;BME280;8103;51.340;12.326;2022-10-23T00:09:23;100421.84;;;13.81;nan
15998;BME280;8103;51.340;12.326;2022-10-23T00:11:51;100421.84;;;13.81;nan
15998;BME280;8103;51.340;12.326;2022-10-23T00:14:21;100417.28;;;13.81;nan
15998;BME280;8103;51.340;12.326;2022-10-23T00:16:50;100415.38;;;13.82;nan
15998;BME280;8103;51.340;12.326;2022-10-23T00:19:26;100417.81;;;13.83;nan
15998;BME280;8103;51.340;12.326;2022-10-23T00:21:53;100418.88;;;13.82;nan
15998;BME280;8103;51.340;12.326;2022-10-23T00:24:20;100418.06;;;13.82;nan
15998;BME280;8103;51.340;12.326;2022-10-23T00:26:49;100431.03;;;13.80;nan
15998;BME280;8103;51.340;12.326;2022-10-23T00:29:16;100432.34;;;13.77;nan
15998;BME280;8103;51.340;12.326;2022-10-23T00:31:43;100434.50;;;13.75;nan
15998;BME280;8103;51.340;12.326;2022-10-23T00:34:10;100431.78;;;13.70;nan
15998;BME280;8103;51.340;12.326;2022-10-23T00:36:40;100429.38;;;13.69;nan
15998;BME280;8103;51.340;12.326;2022-10-23T00:39:07;100426.94;;;13.67;nan
15998;BME280;8103;51.340;12.326;2022-10-23T00:41:34;100427.75;;;13.68;nan
15998;BME280;8103;51.340;12.326;2022-10-23T00:46:59;100416.69;;;13.64;nan
15998;BME280;8103;51.340;12.326;2022-10-23T00:49:26;100416.16;;;13.67;nan
15998;BME280;8103;51.340;12.326;2022-10-23T00:51:58;100414.03;;;13.69;nan
15998;BME280;8103;51.340;12.326;2022-10-23T00:54:33;100419.41;;;13.69;nan
15998;BME280;8103;51.340;12.326;2022-10-23T00:57:08;100419.41;;;13.69;nan
15998;BME280;8103;51.340;12.326;2022-10-23T00:59:38;100423.97;;;13.69;nan
15998;BME280;8103;51.340;12.326;2022-10-23T01:02:05;100430.97;;;13.70;nan
15998;BME280;8103;51.340;12.326;2022-10-23T01:04:36;100436.66;;;13.73;nan
15998;BME280;8103;51.340;12.326;2022-10-23T01:07:21;100429.38;;;13.74;nan
15998;BME280;8103;51.340;12.326;2022-10-23T01:18:47;100426.41;;;13.70;nan
15998;BME280;8103;51.340;12.326;2022-10-23T01:21:26;100428.53;;;13.68;nan
15998;BME280;8103;51.340;12.326;2022-10-23T01:35:18;100414.03;;;13.69;nan
15998;BME280;8103;51.340;12.326;2022-10-23T01:38:03;100410.25;;;13.70;nan
15998;BME280;8103;51.340;12.326;2022-10-23T01:40:46;100416.19;;;13.72;nan
15998;BME280;8103;51.340;12.326;2022-10-23T01:43:29;100409.72;;;13.73;nan
15998;BME280;8103;51.340;12.326;2022-10-23T01:46:07;100409.72;;;13.73;nan
15998;BME280;8103;51.340;12.326;2022-10-23T01:48:37;100418.88;;;13.72;nan
15998;BME280;8103;51.340;12.326;2022-10-23T01:51:08;100409.72;;;13.73;nan
15998;BME280;8103;51.340;12.326;2022-10-23T01:53:42;100405.66;;;13.71;nan
15998;BME280;8103;51.340;12.326;2022-10-23T01:56:15;100413.50;;;13.72;nan
15998;BME280;8103;51.340;12.326;2022-10-23T01:58:49;100415.91;;;13.74;nan
15998;BME280;8103;51.340;12.326;2022-10-23T02:01:22;100415.63;;;13.70;nan
15998;BME280;8103;51.340;12.326;2022-10-23T02:03:52;100418.59;;;13.69;nan
15998;BME280;8103;51.340;12.326;2022-10-23T02:06:20;100408.06;;;13.67;nan
15998;BME280;8103;51.340;12.326;2022-10-23T02:08:47;100408.34;;;13.66;nan
15998;BME280;8103;51.340;12.326;2022-10-23T02:11:19;100415.34;;;13.62;nan
15998;BME280;8103;51.340;12.326;2022-10-23T02:14:18;100393.50;;;13.53;nan
15998;BME280;8103;51.340;12.326;2022-10-23T02:16:57;100401.84;;;13.52;nan
15998;BME280;8103;51.340;12.326;2022-10-23T02:19:44;100399.44;;;13.50;nan
15998;BME280;8103;51.340;12.326;2022-10-23T02:22:29;100397.78;;;13.49;nan
15998;BME280;8103;51.340;12.326;2022-10-23T02:25:10;100398.09;;;13.53;nan
15998;BME280;8103;51.340;12.326;2022-10-23T02:27:47;100399.97;;;13.57;nan
15998;BME280;8103;51.340;12.326;2022-10-23T02:30:18;100396.47;;;13.62;nan
15998;BME280;8103;51.340;12.326;2022-10-23T02:32:52;100381.69;;;13.69;nan
15998;BME280;8103;51.340;12.326;2022-10-23T02:35:23;100374.94;;;13.72;nan
15998;BME280;8103;51.340;12.326;2022-10-23T02:37:59;100375.75;;;13.72;nan
15998;BME280;8103;51.340;12.326;2022-10-23T02:40:42;100369.81;;;13.70;nan
15998;BME280;8103;51.340;12.326;2022-10-23T02:43:25;100376.28;;;13.69;nan
15998;BME280;8103;51.340;12.326;2022-10-23T02:46:06;100379.50;;;13.71;nan
15998;BME280;8103;51.340;12.326;2022-10-23T02:48:54;100374.94;;;13.72;nan
15998;BME280;8103;51.340;12.326;2022-10-23T02:51:55;100378.97;;;13.74;nan
15998;BME280;8103;51.340;12.326;2022-10-23T02:57:34;100382.22;;;13.66;nan
15998;BME280;8103;51.340;12.326;2022-10-23T03:00:11;100389.50;;;13.61;nan
15998;BME280;8103;51.340;12.326;2022-10-23T03:03:13;100379.50;;;13.56;nan
15998;BME280;8103;51.340;12.326;2022-10-23T03:05:41;100379.78;;;13.55;nan
15998;BME280;8103;51.340;12.326;2022-10-23T03:08:12;100378.13;;;13.54;nan
15998;BME280;8103;51.340;12.326;2022-10-23T03:10:41;100377.31;;;13.48;nan
15998;BME280;8103;51.340;12.326;2022-10-23T03:13:10;100375.72;;;13.47;nan
15998;BME280;8103;51.340;12.326;2022-10-23T03:15:37;100376.25;;;13.49;nan
15998;BME280;8103;51.340;12.326;2022-10-23T03:18:04;100380.84;;;13.49;nan
15998;BME280;8103;51.340;12.326;2022-10-23T03:20:31;100374.09;;;13.51;nan
15998;BME280;8103;51.340;12.326;2022-10-23T03:22:58;100366.00;;;13.46;nan
15998;BME280;8103;51.340;12.326;2022-10-23T03:25:25;100380.00;;;13.43;nan
15998;BME280;8103;51.340;12.326;2022-10-23T03:27:52;100377.31;;;13.43;nan
15998;BME280;8103;51.340;12.326;2022-10-23T03:30:19;100380.00;;;13.43;nan
15998;BME280;8103;51.340;12.326;2022-10-23T03:32:46;100381.91;;;13.43;nan
15998;BME280;8103;51.340;12.326;2022-10-23T03:35:13;100385.38;;;13.43;nan
15998;BME280;8103;51.340;12.326;2022-10-23T03:37:40;100383.25;;;13.40;nan
15998;BME280;8103;51.340;12.326;2022-10-23T03:40:08;100370.56;;;13.36;nan
15998;BME280;8103;51.340;12.326;2022-10-23T03:42:35;100363.28;;;13.31;nan
15998;BME280;8103;51.340;12.326;2022-10-23T03:45:02;100367.03;;;13.30;nan
15998;BME280;8103;51.340;12.326;2022-10-23T03:47:29;100374.59;;;13.28;nan
15998;BME280;8103;51.340;12.326;2022-10-23T03:49:57;100367.03;;;13.25;nan
15998;BME280;8103;51.340;12.326;2022-10-23T03:52:24;100358.97;;;13.25;nan
15998;BME280;8103;51.340;12.326;2022-10-23T03:54:51;100356.28;;;13.25;nan
15998;BME280;8103;51.340;12.326;2022-10-23T03:57:18;100350.34;;;13.23;nan
15998;BME280;8103;51.340;12.326;2022-10-23T03:59:45;100354.91;;;13.23;nan
15998;BME280;8103;51.340;12.326;2022-10-23T04:02:12;100355.19;;;13.21;nan
15998;BME280;8103;51.340;12.326;2022-10-23T04:04:39;100361.63;;;13.20;nan
15998;BME280;8103;51.340;12.326;2022-10-23T04:07:06;100361.09;;;13.18;nan
15998;BME280;8103;51.340;12.326;2022-10-23T04:09:33;100362.69;;;13.14;nan
15998;BME280;8103;51.340;12.326;2022-10-23T04:12:02;100368.34;;;13.13;nan
15998;BME280;8103;51.340;12.326;2022-10-23T04:14:29;100368.59;;;13.11;nan
15998;BME280;8103;51.340;12.326;2022-10-23T04:16:55;100372.38;;;13.10;nan
15998;BME280;8103;51.340;12.326;2022-10-23T04:19:23;100372.38;;;13.10;nan
15998;BME280;8103;51.340;12.326;2022-10-23T04:21:50;100372.63;;;13.09;nan
15998;BME280;8103;51.340;12.326;2022-10-23T04:24:17;100378.28;;;13.07;nan
15998;BME280;8103;51.340;12.326;2022-10-23T04:26:44;100375.03;;;13.05;nan
15998;BME280;8103;51.340;12.326;2022-10-23T04:29:11;100377.47;;;13.07;nan
15998;BME280;8103;51.340;12.326;2022-10-23T04:31:38;100373.16;;;13.06;nan
15998;BME280;8103;51.340;12.326;2022-10-23T04:34:05;100375.28;;;13.04;nan
15998;BME280;8103;51.340;12.326;2022-10-23T04:36:37;100371.25;;;13.01;nan
15998;BME280;8103;51.340;12.326;2022-10-23T04:39:04;100368.56;;;13.01;nan
15998;BME280;8103;51.340;12.326;2022-10-23T04:41:31;100371.53;;;13.00;nan
15998;BME280;8103;51.340;12.326;2022-10-23T04:43:58;100355.88;;;12.97;nan
15998;BME280;8103;51.340;12.326;2022-10-23T04:46:25;100367.97;;;12.94;nan
15998;BME280;8103;51.340;12.326;2022-10-23T04:48:52;100363.94;;;12.97;nan
15998;BME280;8103;51.340;12.326;2022-10-23T04:51:19;100358.81;;;12.95;nan
15998;BME280;8103;51.340;12.326;2022-10-23T04:53:46;100360.47;;;12.96;nan
15998;BME280;8103;51.340;12.326;2022-10-23T04:56:14;100359.91;;;12.94;nan
15998;BME280;8103;51.340;12.326;2022-10-23T04:58:41;100355.59;;;12.93;nan
15998;BME280;8103;51.340;12.326;2022-10-23T05:01:09;100358.81;;;12.90;nan
15998;BME280;8103;51.340;12.326;2022-10-23T05:03:37;100356.38;;;12.88;nan
15998;BME280;8103;51.340;12.326;2022-10-23T05:06:05;100355.00;;;12.86;nan
15998;BME280;8103;51.340;12.326;2022-10-23T05:08:32;100364.16;;;12.85;nan
15998;BME280;8103;51.340;12.326;2022-10-23T05:10:59;100356.09;;;12.85;nan
15998;BME280;8103;51.340;12.326;2022-10-23T05:13:26;100349.88;;;12.84;nan
15998;BME280;8103;51.340;12.326;2022-10-23T05:15:53;100356.63;;;12.82;nan
15998;BME280;8103;51.340;12.326;2022-10-23T05:21:04;100345.31;;;12.80;nan
15998;BME280;8103;51.340;12.326;2022-10-23T05:23:35;100342.06;;;12.78;nan
15998;BME280;8103;51.340;12.326;2022-10-23T05:26:04;100343.41;;;12.75;nan
15998;BME280;8103;51.340;12.326;2022-10-23T05:28:31;100339.34;;;12.73;nan
15998;BME280;8103;51.340;12.326;2022-10-23T05:31:00;100339.34;;;12.73;nan
15998;BME280;8103;51.340;12.326;2022-10-23T05:33:30;100344.47;;;12.69;nan
15998;BME280;8103;51.340;12.326;2022-10-23T05:35:58;100344.72;;;12.68;nan
15998;BME280;8103;51.340;12.326;2022-10-23T05:38:28;100349.53;;;12.66;nan
15998;BME280;8103;51.340;12.326;2022-10-23T05:40:56;100347.13;;;12.64;nan
15998;BME280;8103;51.340;12.326;2022-10-23T05:43:23;100346.59;;;12.67;nan
15998;BME280;8103;51.340;12.326;2022-10-23T05:45:53;100347.41;;;12.68;nan
15998;BME280;8103;51.340;12.326;2022-10-23T05:48:20;100338.25;;;12.69;nan
15998;BME280;8103;51.340;12.326;2022-10-23T05:51:05;100332.63;;;12.70;nan
15998;BME280;8103;51.340;12.326;2022-10-23T05:53:32;100324.53;;;12.70;nan
15998;BME280;8103;51.340;12.326;2022-10-23T05:56:07;100323.47;;;12.71;nan
15998;BME280;8103;51.340;12.326;2022-10-23T05:58:35;100322.94;;;12.69;nan
15998;BME280;8103;51.340;12.326;2022-10-23T06:01:08;100329.94;;;12.70;nan
15998;BME280;8103;51.340;12.326;2022-10-23T06:03:37;100339.38;;;12.78;nan
15998;BME280;8103;51.340;12.326;2022-10-23T06:06:06;100329.69;;;12.77;nan
15998;BME280;8103;51.340;12.326;2022-10-23T06:08:34;100331.56;;;12.76;nan
15998;BME280;8103;51.340;12.326;2022-10-23T06:11:10;100334.81;;;12.78;nan
15998;BME280;8103;51.340;12.326;2022-10-23T06:13:41;100338.31;;;12.79;nan
15998;BME280;8103;51.340;12.326;2022-10-23T06:16:16;100334.56;;;12.80;nan
15998;BME280;8103;51.340;12.326;2022-10-23T06:18:44;100337.50;;;12.83;nan
15998;BME280;8103;51.340;12.326;2022-10-23T06:21:13;100338.84;;;12.86;nan
15998;BME280;8103;51.340;12.326;2022-10-23T06:23:42;100341.59;;;12.91;nan
15998;BME280;8103;51.340;12.326;2022-10-23T06:26:13;100337.81;;;12.92;nan
15998;BME280;8103;51.340;12.326;2022-10-23T06:28:41;100336.75;;;12.98;nan
15998;BME280;8103;51.340;12.326;2022-10-23T06:31:13;100329.28;;;13.05;nan
15998;BME280;8103;51.340;12.326;2022-10-23T06:33:41;100338.47;;;13.14;nan
15998;BME280;8103;51.340;12.326;2022-10-23T06:36:09;100340.91;;;13.26;nan
15998;BME280;8103;51.340;12.326;2022-10-23T06:38:37;100343.88;;;13.24;nan
15998;BME280;8103;51.340;12.326;2022-10-23T06:41:13;100347.66;;;13.28;nan
15998;BME280;8103;51.340;12.326;2022-10-23T06:43:41;100346.06;;;13.37;nan
15998;BME280;8103;51.340;12.326;2022-10-23T06:46:08;100350.94;;;13.40;nan
15998;BME280;8103;51.340;12.326;2022-10-23T06:48:36;100348.50;;;13.49;nan
15998;BME280;8103;51.340;12.326;2022-10-23T06:51:06;100357.94;;;13.61;nan
15998;BME280;8103;51.340;12.326;2022-10-23T06:53:34;100362.25;;;13.67;nan
15998;BME280;8103;51.340;12.326;2022-10-23T06:56:03;100355.28;;;13.76;nan
15998;BME280;8103;51.340;12.326;2022-10-23T06:58:34;100356.09;;;13.87;nan
15998;BME280;8103;51.340;12.326;2022-10-23T07:01:06;100361.47;;;13.97;nan
15998;BME280;8103;51.340;12.326;2022-10-23T07:03:34;100354.75;;;14.04;nan
15998;BME280;8103;51.340;12.326;2022-10-23T07:06:06;100353.94;;;14.09;nan
15998;BME280;8103;51.340;12.326;2022-10-23T07:08:35;100356.88;;;14.17;nan
15998;BME280;8103;51.340;12.326;2022-10-23T07:11:11;100347.72;;;14.28;nan
15998;BME280;8103;51.340;12.326;2022-10-23T07:13:38;100357.13;;;14.46;nan
15998;BME280;8103;51.340;12.326;2022-10-23T07:16:19;100348.22;;;14.55;nan
15998;BME280;8103;51.340;12.326;2022-10-23T07:18:48;100346.03;;;14.67;nan
15998;BME280;8103;51.340;12.326;2022-10-23T07:21:16;100353.22;;;14.87;nan
15998;BME280;8103;51.340;12.326;2022-10-23T07:23:43;100358.31;;;14.99;nan
15998;BME280;8103;51.340;12.326;2022-10-23T07:26:13;100360.69;;;15.10;nan
15998;BME280;8103;51.340;12.326;2022-10-23T07:28:43;100357.38;;;15.23;nan
15998;BME280;8103;51.340;12.326;2022-10-23T07:31:12;100353.25;;;15.36;nan
15998;BME280;8103;51.340;12.326;2022-10-23T07:33:39;100355.91;;;15.46;nan
15998;BME280;8103;51.340;12.326;2022-10-23T07:36:08;100338.56;;;15.57;nan
15998;BME280;8103;51.340;12.326;2022-10-23T07:38:35;100341.81;;;15.54;nan
15998;BME280;8103;51.340;12.326;2022-10-23T07:41:03;100362.97;;;15.47;nan
15998;BME280;8103;51.340;12.326;2022-10-23T07:43:32;100363.75;;;15.47;nan
15998;BME280;8103;51.340;12.326;2022-10-23T07:46:01;100360.75;;;15.54;nan
15998;BME280;8103;51.340;12.326;2022-10-23T07:48:29;100358.53;;;15.61;nan
15998;BME280;8103;51.340;12.326;2022-10-23T07:51:02;100363.06;;;15.70;nan
15998;BME280;8103;51.340;12.326;2022-10-23T07:53:34;100352.47;;;15.79;nan
15998;BME280;8103;51.340;12.326;2022-10-23T07:56:11;100352.94;;;15.86;nan
15998;BME280;8103;51.340;12.326;2022-10-23T07:58:39;100358.53;;;15.94;nan
15998;BME280;8103;51.340;12.326;2022-10-23T08:01:19;100356.94;;;15.93;nan
15998;BME280;8103;51.340;12.326;2022-10-23T08:03:47;100349.63;;;15.94;nan
15998;BME280;8103;51.340;12.326;2022-10-23T08:06:14;100341.94;;;16.06;nan
15998;BME280;8103;51.340;12.326;2022-10-23T08:08:41;100334.97;;;16.28;nan
15998;BME280;8103;51.340;12.326;2022-10-23T08:11:12;100330.75;;;16.46;nan
15998;BME280;8103;51.340;12.326;2022-10-23T08:13:40;100333.88;;;16.58;nan
15998;BME280;8103;51.340;12.326;2022-10-23T08:16:09;100331.06;;;16.68;nan
15998;BME280;8103;51.340;12.326;2022-10-23T08:18:36;100326.16;;;16.70;nan
15998;BME280;8103;51.340;12.326;2022-10-23T08:21:10;100317.38;;;16.78;nan
15998;BME280;8103;51.340;12.326;2022-10-23T08:23:37;100317.25;;;16.88;nan
15998;BME280;8103;51.340;12.326;2022-10-23T08:26:05;100318.34;;;16.87;nan
15998;BME280;8103;51.340;12.326;2022-10-23T08:28:33;100317.72;;;16.95;nan
15998;BME280;8103;51.340;12.326;2022-10-23T08:31:13;100314.78;;;17.10;nan
15998;BME280;8103;51.340;12.326;2022-10-23T08:33:41;100317.44;;;17.15;nan
15998;BME280;8103;51.340;12.326;2022-10-23T08:36:26;100309.91;;;17.12;nan
15998;BME280;8103;51.340;12.326;2022-10-23T08:38:56;100311.94;;;17.20;nan
15998;BME280;8103;51.340;12.326;2022-10-23T08:41:39;100324.09;;;17.04;nan
15998;BME280;8103;51.340;12.326;2022-10-23T08:47:27;100304.38;;;16.98;nan
15998;BME280;8103;51.340;12.326;2022-10-23T08:50:07;100322.63;;;17.12;nan
15998;BME280;8103;51.340;12.326;2022-10-23T08:52:54;100315.75;;;17.19;nan
15998;BME280;8103;51.340;12.326;2022-10-23T08:55:35;100310.38;;;17.56;nan
15998;BME280;8103;51.340;12.326;2022-10-23T08:58:10;100306.69;;;18.43;nan
15998;BME280;8103;51.340;12.326;2022-10-23T09:00:43;100314.00;;;19.11;nan
15998;BME280;8103;51.340;12.326;2022-10-23T09:03:12;100322.50;;;19.89;nan
15998;BME280;8103;51.340;12.326;2022-10-23T09:09:18;100318.69;;;23.10;nan
15998;BME280;8103;51.340;12.326;2022-10-23T09:12:23;100325.97;;;24.09;nan
15998;BME280;8103;51.340;12.326;2022-10-23T09:17:46;100322.56;;;24.80;nan
15998;BME280;8103;51.340;12.326;2022-10-23T09:20:27;100311.47;;;26.08;nan
15998;BME280;8103;51.340;12.326;2022-10-23T09:23:06;100318.88;;;26.19;nan
15998;BME280;8103;51.340;12.326;2022-10-23T09:25:45;100316.41;;;26.61;nan
15998;BME280;8103;51.340;12.326;2022-10-23T09:28:31;100328.59;;;27.79;nan
15998;BME280;8103;51.340;12.326;2022-10-23T09:31:08;100328.22;;;27.43;nan
15998;BME280;8103;51.340;12.326;2022-10-23T09:33:35;100323.66;;;25.95;nan
15998;BME280;8103;51.340;12.326;2022-10-23T09:41:23;100338.50;;;26.49;nan
15998;BME280;8103;51.340;12.326;2022-10-23T09:44:27;100335.66;;;25.23;nan
15998;BME280;8103;51.340;12.326;2022-10-23T09:49:33;100324.22;;;25.45;nan
15998;BME280;8103;51.340;12.326;2022-10-23T09:54:58;100328.13;;;25.08;nan
15998;BME280;8103;51.340;12.326;2022-10-23T09:57:36;100324.03;;;25.66;nan
15998;BME280;8103;51.340;12.326;2022-10-23T10:00:26;100325.28;;;27.01;nan
15998;BME280;8103;51.340;12.326;2022-10-23T10:03:03;100319.38;;;27.91;nan
15998;BME280;8103;51.340;12.326;2022-10-23T10:05:37;100316.69;;;27.56;nan
15998;BME280;8103;51.340;12.326;2022-10-23T10:08:21;100310.53;;;26.47;nan
15998;BME280;8103;51.340;12.326;2022-10-23T10:11:12;100314.59;;;26.06;nan
15998;BME280;8103;51.340;12.326;2022-10-23T10:16:50;100299.31;;;25.02;nan
15998;BME280;8103;51.340;12.326;2022-10-23T10:23:03;100293.34;;;24.52;nan
15998;BME280;8103;51.340;12.326;2022-10-23T10:25:56;100283.53;;;24.27;nan
15998;BME280;8103;51.340;12.326;2022-10-23T10:34:21;100263.78;;;24.57;nan
15998;BME280;8103;51.340;12.326;2022-10-23T10:37:00;100271.97;;;25.18;nan
15998;BME280;8103;51.340;12.326;2022-10-23T10:39:56;100270.94;;;26.82;nan
15998;BME280;8103;51.340;12.326;2022-10-23T10:43:03;100265.22;;;29.51;nan
15998;BME280;8103;51.340;12.326;2022-10-23T10:45:46;100260.38;;;32.26;nan
15998;BME280;8103;51.340;12.326;2022-10-23T10:48:42;100256.44;;;32.62;nan
15998;BME280;8103;51.340;12.326;2022-10-23T10:51:37;100258.84;;;32.39;nan
15998;BME280;8103;51.340;12.326;2022-10-23T10:54:35;100245.28;;;32.83;nan
15998;BME280;8103;51.340;12.326;2022-10-23T10:57:33;100244.53;;;31.13;nan
15998;BME280;8103;51.340;12.326;2022-10-23T11:00:17;100253.31;;;31.22;nan
15998;BME280;8103;51.340;12.326;2022-10-23T11:02:59;100249.78;;;31.28;nan
15998;BME280;8103;51.340;12.326;2022-10-23T11:05:37;100249.56;;;30.90;nan
15998;BME280;8103;51.340;12.326;2022-10-23T11:08:20;100240.50;;;31.96;nan
15998;BME280;8103;51.340;12.326;2022-10-23T11:11:16;100243.22;;;31.75;nan
15998;BME280;8103;51.340;12.326;2022-10-23T11:13:44;100235.63;;;30.28;nan
15998;BME280;8103;51.340;12.326;2022-10-23T11:16:23;100239.56;;;28.95;nan
15998;BME280;8103;51.340;12.326;2022-10-23T11:19:07;100220.78;;;29.04;nan
15998;BME280;8103;51.340;12.326;2022-10-23T11:28:00;100218.19;;;31.54;nan
15998;BME280;8103;51.340;12.326;2022-10-23T11:36:59;100200.03;;;25.67;nan
15998;BME280;8103;51.340;12.326;2022-10-23T11:39:30;100203.19;;;25.26;nan
15998;BME280;8103;51.340;12.326;2022-10-23T11:58:48;100143.50;;;29.84;nan
15998;BME280;8103;51.340;12.326;2022-10-23T12:01:42;100144.19;;;27.97;nan
15998;BME280;8103;51.340;12.326;2022-10-23T12:06:58;100129.56;;;27.29;nan
15998;BME280;8103;51.340;12.326;2022-10-23T12:09:44;100120.47;;;29.00;nan
15998;BME280;8103;51.340;12.326;2022-10-23T12:12:26;100119.19;;;32.35;nan
15998;BME280;8103;51.340;12.326;2022-10-23T12:15:23;100113.75;;;35.24;nan
15998;BME280;8103;51.340;12.326;2022-10-23T12:17:54;100120.91;;;35.82;nan
15998;BME280;8103;51.340;12.326;2022-10-23T12:20:38;100128.84;;;33.78;nan
15998;BME280;8103;51.340;12.326;2022-10-23T12:27:33;100118.25;;;31.19;nan
15998;BME280;8103;51.340;12.326;2022-10-23T12:30:21;100110.78;;;29.93;nan
15998;BME280;8103;51.340;12.326;2022-10-23T12:33:10;100108.47;;;29.19;nan
15998;BME280;8103;51.340;12.326;2022-10-23T12:36:02;100101.75;;;29.16;nan
15998;BME280;8103;51.340;12.326;2022-10-23T12:38:41;100097.06;;;30.07;nan
15998;BME280;8103;51.340;12.326;2022-10-23T12:41:26;100094.34;;;30.76;nan
15998;BME280;8103;51.340;12.326;2022-10-23T12:44:01;100095.28;;;31.18;nan
15998;BME280;8103;51.340;12.326;2022-10-23T12:46:50;100089.78;;;31.29;nan
15998;BME280;8103;51.340;12.326;2022-10-23T12:49:24;100097.66;;;31.20;nan
15998;BME280;8103;51.340;12.326;2022-10-23T12:52:01;100082.66;;;31.35;nan
15998;BME280;8103;51.340;12.326;2022-10-23T12:54:36;100079.81;;;31.21;nan
15998;BME280;8103;51.340;12.326;2022-10-23T12:57:28;100078.63;;;31.18;nan
15998;BME280;8103;51.340;12.326;2022-10-23T13:00:02;100073.00;;;30.80;nan
15998;BME280;8103;51.340;12.326;2022-10-23T13:02:31;100066.63;;;29.60;nan
15998;BME280;8103;51.340;12.326;2022-10-23T13:05:06;100065.47;;;28.55;nan
15998;BME280;8103;51.340;12.326;2022-10-23T13:07:42;100064.59;;;28.21;nan
15998;BME280;8103;51.340;12.326;2022-10-23T13:10:16;100060.09;;;27.61;nan
15998;BME280;8103;51.340;12.326;2022-10-23T13:12:52;100055.94;;;27.07;nan
15998;BME280;8103;51.340;12.326;2022-10-23T13:15:22;100069.16;;;26.78;nan
15998;BME280;8103;51.340;12.326;2022-10-23T13:20:25;100063.53;;;26.02;nan
15998;BME280;8103;51.340;12.326;2022-10-23T13:23:16;100064.44;;;25.60;nan
15998;BME280;8103;51.340;12.326;2022-10-23T13:26:18;100054.97;;;25.57;nan
15998;BME280;8103;51.340;12.326;2022-10-23T13:28:49;100053.34;;;25.56;nan
15998;BME280;8103;51.340;12.326;2022-10-23T13:33:48;100053.31;;;25.25;nan
15998;BME280;8103;51.340;12.326;2022-10-23T13:36:23;100050.38;;;25.18;nan
15998;BME280;8103;51.340;12.326;2022-10-23T13:39:13;100040.78;;;25.12;nan
15998;BME280;8103;51.340;12.326;2022-10-23T13:41:44;100024.22;;;24.93;nan
15998;BME280;8103;51.340;12.326;2022-10-23T13:44:14;100022.03;;;24.71;nan
15998;BME280;8103;51.340;12.326;2022-10-23T13:46:44;100015.28;;;24.41;nan
15998;BME280;8103;51.340;12.326;2022-10-23T13:49:11;100024.72;;;24.16;nan
15998;BME280;8103;51.340;12.326;2022-10-23T13:51:49;100017.44;;;23.84;nan
15998;BME280;8103;51.340;12.326;2022-10-23T13:54:27;100018.47;;;23.55;nan
15998;BME280;8103;51.340;12.326;2022-10-23T13:56:55;100018.81;;;23.42;nan
15998;BME280;8103;51.340;12.326;2022-10-23T13:59:25;100019.03;;;23.37;nan
15998;BME280;8103;51.340;12.326;2022-10-23T14:01:54;100025.44;;;23.29;nan
15998;BME280;8103;51.340;12.326;2022-10-23T14:04:21;100017.84;;;23.14;nan
15998;BME280;8103;51.340;12.326;2022-10-23T14:06:49;100017.66;;;22.98;nan
15998;BME280;8103;51.340;12.326;2022-10-23T14:09:17;100014.47;;;22.84;nan
15998;BME280;8103;51.340;12.326;2022-10-23T14:11:44;100008.59;;;22.73;nan
15998;BME280;8103;51.340;12.326;2022-10-23T14:14:11;100009.94;;;22.67;nan
15998;BME280;8103;51.340;12.326;2022-10-23T14:16:40;100004.22;;;22.60;nan
15998;BME280;8103;51.340;12.326;2022-10-23T14:19:08;100001.63;;;22.43;nan
15998;BME280;8103;51.340;12.326;2022-10-23T14:21:36;99994.78;;;22.37;nan
15998;BME280;8103;51.340;12.326;2022-10-23T14:24:03;99983.97;;;22.20;nan
15998;BME280;8103;51.340;12.326;2022-10-23T14:26:30;99983.94;;;22.08;nan
15998;BME280;8103;51.340;12.326;2022-10-23T14:28:59;99980.91;;;22.01;nan
15998;BME280;8103;51.340;12.326;2022-10-23T14:31:28;99967.22;;;21.89;nan
15998;BME280;8103;51.340;12.326;2022-10-23T14:33:57;99962.09;;;21.79;nan
15998;BME280;8103;51.340;12.326;2022-10-23T14:36:35;99963.63;;;21.68;nan
15998;BME280;8103;51.340;12.326;2022-10-23T14:39:08;99965.09;;;21.57;nan
15998;BME280;8103;51.340;12.326;2022-10-23T14:41:36;99969.50;;;21.50;nan
15998;BME280;8103;51.340;12.326;2022-10-23T14:44:06;99960.69;;;21.44;nan
15998;BME280;8103;51.340;12.326;2022-10-23T14:46:33;99961.88;;;21.35;nan
15998;BME280;8103;51.340;12.326;2022-10-23T14:49:01;99954.84;;;21.25;nan
15998;BME280;8103;51.340;12.326;2022-10-23T14:51:29;99958.75;;;21.16;nan
15998;BME280;8103;51.340;12.326;2022-10-23T14:54:04;99953.97;;;21.13;nan
15998;BME280;8103;51.340;12.326;2022-10-23T14:56:36;99953.03;;;21.09;nan
15998;BME280;8103;51.340;12.326;2022-10-23T14:59:04;99952.88;;;21.05;nan
15998;BME280;8103;51.340;12.326;2022-10-23T15:01:36;99955.59;;;21.05;nan
15998;BME280;8103;51.340;12.326;2022-10-23T15:04:06;99957.50;;;21.05;nan
15998;BME280;8103;51.340;12.326;2022-10-23T15:06:34;99954.81;;;20.96;nan
15998;BME280;8103;51.340;12.326;2022-10-23T15:09:03;99949.16;;;20.92;nan
15998;BME280;8103;51.340;12.326;2022-10-23T15:11:31;99941.03;;;20.84;nan
15998;BME280;8103;51.340;12.326;2022-10-23T15:13:59;99944.59;;;20.76;nan
15998;BME280;8103;51.340;12.326;2022-10-23T15:16:26;99940.44;;;20.70;nan
15998;BME280;8103;51.340;12.326;2022-10-23T15:18:53;99941.25;;;20.62;nan
15998;BME280;8103;51.340;12.326;2022-10-23T15:21:22;99948.47;;;20.58;nan
15998;BME280;8103;51.340;12.326;2022-10-23T15:23:49;99939.53;;;20.49;nan
15998;BME280;8103;51.340;12.326;2022-10-23T15:26:19;99944.66;;;20.42;nan
15998;BME280;8103;51.340;12.326;2022-10-23T15:28:57;99938.28;;;20.38;nan